createdAt,value
2018-04-22T00:02:26.113Z,23.08
2018-04-22T00:04:54.600Z,16.30
2018-04-22T00:07:23.201Z,18.60
2018-04-22T00:09:51.643Z,18.47
2018-04-22T00:12:20.728Z,21.83
2018-04-22T00:14:49.405Z,17.83
2018-04-22T00:17:18.021Z,24.20
2018-04-22T00:19:46.690Z,20.50
2018-04-22T00:22:15.149Z,19.40
2018-04-22T00:24:43.598Z,18.33
2018-04-22T00:27:12.046Z,27.30
2018-04-22T00:29:40.504Z,22.90
2018-04-22T00:32:08.890Z,28.53
2018-04-22T00:34:37.320Z,20.60
2018-04-22T00:37:05.768Z,19.30
2018-04-22T00:39:35.246Z,22.30
2018-04-22T00:42:03.996Z,21.43
2018-04-22T00:44:32.541Z,22.90
2018-04-22T00:47:02.026Z,23.45
2018-04-22T00:49:30.597Z,23.07
2018-04-22T00:51:59.393Z,23.42
2018-04-22T00:54:27.841Z,21.40
2018-04-22T00:56:56.285Z,21.77
2018-04-22T00:59:25.033Z,22.03
2018-04-22T01:01:53.750Z,17.92
2018-04-22T01:04:23.834Z,21.30
2018-04-22T01:06:52.618Z,20.17
2018-04-22T01:09:22.339Z,19.90
2018-04-22T01:11:50.895Z,19.17
2018-04-22T01:14:19.653Z,20.83
2018-04-22T01:16:48.377Z,19.35
2018-04-22T01:19:17.749Z,20.40
2018-04-22T01:21:46.405Z,20.10
2018-04-22T01:24:14.845Z,18.93
2018-04-22T01:26:44.056Z,20.37
2018-04-22T01:29:12.809Z,21.60
2018-04-22T01:31:41.429Z,21.83
2018-04-22T01:34:10.158Z,18.58
2018-04-22T01:36:38.630Z,15.80
2018-04-22T01:39:07.043Z,20.30
2018-04-22T01:41:35.692Z,18.37
2018-04-22T01:44:04.151Z,24.03
2018-04-22T01:46:32.806Z,20.77
2018-04-22T01:49:02.089Z,22.47
2018-04-22T01:51:30.825Z,19.25
2018-04-22T01:53:59.554Z,19.93
2018-04-22T01:56:27.989Z,17.40
2018-04-22T01:58:56.451Z,18.20
2018-04-22T02:01:24.905Z,19.87
2018-04-22T02:03:53.524Z,16.40
2018-04-22T02:06:22.008Z,25.67
2018-04-22T02:08:51.484Z,20.05
2018-04-22T02:11:20.692Z,21.07
2018-04-22T02:13:49.143Z,20.30
2018-04-22T02:16:18.360Z,15.90
2018-04-22T02:18:47.220Z,20.80
2018-04-22T02:21:15.662Z,16.30
2018-04-22T02:23:45.466Z,18.73
2018-04-22T02:26:13.949Z,18.33
2018-04-22T02:28:43.454Z,17.75
2018-04-22T02:31:11.898Z,19.17
2018-04-22T02:33:40.393Z,17.03
2018-04-22T02:36:08.510Z,22.03
2018-04-22T02:38:37.231Z,19.50
2018-04-22T02:41:06.481Z,21.60
2018-04-22T02:43:35.245Z,22.20
2018-04-22T02:46:03.822Z,22.77
2018-04-22T02:48:32.483Z,25.60
2018-04-22T02:51:01.725Z,17.37
2018-04-22T02:53:30.194Z,23.20
2018-04-22T02:55:59.651Z,22.27
2018-04-22T02:58:28.881Z,27.97
2018-04-22T03:00:57.589Z,21.15
2018-04-22T03:03:26.085Z,22.40
2018-04-22T03:05:54.557Z,19.07
2018-04-22T03:08:23.273Z,22.33
2018-04-22T03:10:51.765Z,24.80
2018-04-22T03:13:20.522Z,21.42
2018-04-22T03:15:48.961Z,20.67
2018-04-22T03:18:17.700Z,28.07
2018-04-22T03:20:46.157Z,19.67
2018-04-22T03:23:14.868Z,22.70
2018-04-22T03:25:43.326Z,18.80
2018-04-22T03:28:12.071Z,17.30
2018-04-22T03:30:40.646Z,19.97
2018-04-22T03:33:09.093Z,22.50
2018-04-22T03:35:37.711Z,22.20
2018-04-22T03:38:06.163Z,23.57
2018-04-22T03:40:34.598Z,25.23
2018-04-22T03:43:03.318Z,20.42
2018-04-22T03:45:31.529Z,21.77
2018-04-22T03:47:59.973Z,21.60
2018-04-22T03:50:28.436Z,20.20
2018-04-22T03:52:57.165Z,22.73
2018-04-22T03:55:26.364Z,19.90
2018-04-22T03:57:55.077Z,16.63
2018-04-22T04:00:24.551Z,25.53
2018-04-22T04:02:53.125Z,15.87
2018-04-22T04:05:22.979Z,16.60
2018-04-22T04:07:52.483Z,17.60
2018-04-22T04:10:21.205Z,16.17
2018-04-22T04:12:49.248Z,17.43
2018-04-22T04:15:18.077Z,13.77
2018-04-22T04:17:45.929Z,13.00
2018-04-22T04:20:26.157Z,18.42
2018-04-22T04:22:55.316Z,16.23
2018-04-22T04:25:43.573Z,18.23
2018-04-22T04:28:12.030Z,13.13
2018-04-22T04:30:41.441Z,12.63
2018-04-22T04:33:10.175Z,15.13
2018-04-22T04:35:38.716Z,14.93
2018-04-22T04:38:07.140Z,15.23
2018-04-22T04:40:35.584Z,16.20
2018-04-22T04:43:04.015Z,16.23
2018-04-22T04:45:32.735Z,16.13
2018-04-22T04:48:01.460Z,15.27
2018-04-22T04:50:30.097Z,12.60
2018-04-22T04:52:58.544Z,17.03
2018-04-22T04:55:26.993Z,14.30
2018-04-22T04:57:55.723Z,13.57
2018-04-22T05:00:24.216Z,15.18
2018-04-22T05:02:52.944Z,18.42
2018-04-22T05:05:21.668Z,14.90
2018-04-22T05:07:50.050Z,17.27
2018-04-22T05:10:18.493Z,19.00
2018-04-22T05:12:47.217Z,20.35
2018-04-22T05:15:15.845Z,17.07
2018-04-22T05:17:44.353Z,16.33
2018-04-22T05:20:13.260Z,22.52
2018-04-22T05:22:42.005Z,17.70
2018-04-22T05:25:10.457Z,17.67
2018-04-22T05:27:40.492Z,19.47
2018-04-22T05:30:09.151Z,21.80
2018-04-22T05:32:38.376Z,19.60
2018-04-22T05:35:07.873Z,18.90
2018-04-22T05:37:37.366Z,16.13
2018-04-22T05:40:05.812Z,15.23
2018-04-22T05:42:34.256Z,13.10
2018-04-22T05:45:02.703Z,21.43
2018-04-22T05:47:31.326Z,14.10
2018-04-22T05:50:00.043Z,13.68
2018-04-22T05:52:28.552Z,13.97
2018-04-22T05:54:57.013Z,14.33
2018-04-22T05:57:25.604Z,17.30
2018-04-22T05:59:54.319Z,15.63
2018-04-22T06:02:22.765Z,15.23
2018-04-22T06:04:52.399Z,10.85
2018-04-22T06:07:22.147Z,12.75
2018-04-22T06:09:50.628Z,15.40
2018-04-22T06:12:19.501Z,13.60
2018-04-22T06:14:48.322Z,13.90
2018-04-22T06:17:17.858Z,11.47
2018-04-22T06:19:46.777Z,11.52
2018-04-22T06:22:15.338Z,10.27
2018-04-22T06:24:44.929Z,10.68
2018-04-22T06:27:13.451Z,12.47
2018-04-22T06:29:41.906Z,9.53
2018-04-22T06:32:10.373Z,10.83
2018-04-22T06:34:39.073Z,9.07
2018-04-22T06:37:07.512Z,9.60
2018-04-22T06:39:36.243Z,8.47
2018-04-22T06:42:04.720Z,9.47
2018-04-22T06:44:34.181Z,12.15
2018-04-22T06:47:02.900Z,13.30
2018-04-22T06:49:31.612Z,8.38
2018-04-22T06:52:01.698Z,10.53
2018-04-22T06:54:31.288Z,7.63
2018-04-22T06:57:00.612Z,7.80
2018-04-22T06:59:29.517Z,9.80
2018-04-22T07:01:58.308Z,8.90
2018-04-22T07:04:27.086Z,10.20
2018-04-22T07:06:56.575Z,11.77
2018-04-22T07:09:25.037Z,12.90
2018-04-22T07:11:54.266Z,11.20
2018-04-22T07:14:23.733Z,8.52
2018-04-22T07:16:52.957Z,8.47
2018-04-22T07:19:21.664Z,10.30
2018-04-22T07:21:50.313Z,12.93
2018-04-22T07:24:19.039Z,11.45
2018-04-22T07:26:47.469Z,13.53
2018-04-22T07:29:16.724Z,8.13
2018-04-22T07:31:45.456Z,13.03
2018-04-22T07:34:14.686Z,10.07
2018-04-22T07:36:44.160Z,7.03
2018-04-22T07:39:12.665Z,10.03
2018-04-22T07:41:41.316Z,14.53
2018-04-22T07:44:10.528Z,6.97
2018-04-22T07:46:39.242Z,6.75
2018-04-22T07:49:08.842Z,7.60
2018-04-22T07:51:37.268Z,9.30
2018-04-22T07:54:05.735Z,7.83
2018-04-22T07:56:34.440Z,11.50
2018-04-22T07:59:02.892Z,17.80
2018-04-22T08:01:31.593Z,8.70
2018-04-22T08:04:00.380Z,15.30
2018-04-22T08:06:28.799Z,6.10
2018-04-22T08:08:57.246Z,7.90
2018-04-22T08:11:25.673Z,8.30
2018-04-22T08:13:54.291Z,6.90
2018-04-22T08:16:23.099Z,7.25
2018-04-22T08:18:51.891Z,7.67
2018-04-22T08:21:21.092Z,7.93
2018-04-22T08:23:49.886Z,7.07
2018-04-22T08:26:18.340Z,9.00
2018-04-22T08:28:46.780Z,5.77
2018-04-22T08:31:15.327Z,5.60
2018-04-22T08:33:44.524Z,5.53
2018-04-22T08:36:13.721Z,7.33
2018-04-22T08:38:42.430Z,5.87
2018-04-22T08:41:11.101Z,5.87
2018-04-22T08:43:39.813Z,12.27
2018-04-22T08:46:09.291Z,6.60
2018-04-22T08:48:38.575Z,9.70
2018-04-22T08:51:07.276Z,7.80
2018-04-22T08:53:35.732Z,14.87
2018-04-22T08:56:05.092Z,9.83
2018-04-22T08:58:33.718Z,5.37
2018-04-22T09:01:02.506Z,7.05
2018-04-22T09:03:30.952Z,5.50
2018-04-22T09:05:59.397Z,14.60
2018-04-22T09:08:27.880Z,12.93
2018-04-22T09:10:56.329Z,11.27
2018-04-22T09:13:25.529Z,9.70
2018-04-22T09:15:55.085Z,14.40
2018-04-22T09:18:23.983Z,13.60
2018-04-22T09:20:52.465Z,17.37
2018-04-22T09:23:20.693Z,13.87
2018-04-22T09:25:49.190Z,12.13
2018-04-22T09:28:17.634Z,13.30
2018-04-22T09:30:46.248Z,18.33
2018-04-22T09:33:14.687Z,19.40
2018-04-22T09:35:43.900Z,7.70
2018-04-22T09:38:12.662Z,12.87
2018-04-22T09:40:41.398Z,8.23
2018-04-22T09:43:09.882Z,26.10
2018-04-22T09:45:38.690Z,15.83
2018-04-22T09:48:06.871Z,10.57
2018-04-22T09:50:35.303Z,17.10
2018-04-22T09:53:03.942Z,10.10
2018-04-22T09:55:32.647Z,14.43
2018-04-22T09:58:01.348Z,7.70
2018-04-22T10:00:32.646Z,12.73
2018-04-22T10:03:07.819Z,10.73
2018-04-22T10:05:42.387Z,11.90
2018-04-22T10:08:11.154Z,7.43
2018-04-22T10:10:39.609Z,15.17
2018-04-22T10:13:08.222Z,30.90
2018-04-22T10:15:36.925Z,9.30
2018-04-22T10:18:05.637Z,11.73
2018-04-22T10:20:34.090Z,19.43
2018-04-22T10:23:02.531Z,8.80
2018-04-22T10:25:31.272Z,7.15
2018-04-22T10:27:59.709Z,9.27
2018-04-22T10:30:28.219Z,7.37
2018-04-22T10:32:56.929Z,14.90
2018-04-22T10:35:25.437Z,10.20
2018-04-22T10:37:53.968Z,7.30
2018-04-22T10:40:22.413Z,9.90
2018-04-22T10:42:50.668Z,7.87
2018-04-22T10:45:19.869Z,7.77
2018-04-22T10:47:49.234Z,9.93
2018-04-22T10:50:18.473Z,23.77
2018-04-22T10:52:47.873Z,10.43
2018-04-22T11:01:22.164Z,8.33
2018-04-22T11:03:50.612Z,9.60
2018-04-22T11:06:19.114Z,5.17
2018-04-22T11:08:47.861Z,7.30
2018-04-22T11:11:16.396Z,9.20
2018-04-22T11:13:45.867Z,6.60
2018-04-22T11:16:14.311Z,10.10
2018-04-22T11:18:46.115Z,8.43
2018-04-22T11:21:14.908Z,5.30
2018-04-22T11:23:44.725Z,7.72
2018-04-22T11:26:13.413Z,7.53
2018-04-22T11:28:41.945Z,9.57
2018-04-22T11:31:10.460Z,6.17
2018-04-22T11:33:39.928Z,9.05
2018-04-22T11:36:08.367Z,9.13
2018-04-22T11:38:37.061Z,4.28
2018-04-22T11:41:05.558Z,5.00
2018-04-22T11:43:34.020Z,6.53
2018-04-22T11:46:02.449Z,7.00
2018-04-22T11:48:30.964Z,5.20
2018-04-22T11:50:59.720Z,6.50
2018-04-22T11:53:28.765Z,10.82
2018-04-22T11:55:57.636Z,10.23
2018-04-22T11:58:28.354Z,4.00
2018-04-22T12:00:56.840Z,4.57
2018-04-22T12:03:26.218Z,4.00
2018-04-22T12:05:55.716Z,6.67
2018-04-22T12:08:24.160Z,14.20
2018-04-22T12:10:52.600Z,3.43
2018-04-22T12:13:21.072Z,6.63
2018-04-22T12:15:49.812Z,6.23
2018-04-22T12:18:18.321Z,3.27
2018-04-22T12:20:46.772Z,5.27
2018-04-22T12:23:15.589Z,3.70
2018-04-22T12:25:44.173Z,7.50
2018-04-22T12:28:12.632Z,4.20
2018-04-22T12:30:41.344Z,6.17
2018-04-22T12:33:11.771Z,4.20
2018-04-22T12:35:40.216Z,4.00
2018-04-22T12:38:08.648Z,6.23
2018-04-22T12:40:37.078Z,3.73
2018-04-22T12:43:06.009Z,7.30
2018-04-22T12:45:34.464Z,4.70
2018-04-22T12:48:03.180Z,12.50
2018-04-22T12:50:31.649Z,4.93
2018-04-22T12:53:00.345Z,6.57
2018-04-22T12:55:29.602Z,6.33
2018-04-22T12:57:58.814Z,7.23
2018-04-22T13:00:28.111Z,7.03
2018-04-22T13:02:56.821Z,3.40
2018-04-22T13:05:25.306Z,4.00
2018-04-22T13:07:54.759Z,4.96
2018-04-22T13:10:23.479Z,3.37
2018-04-22T13:12:51.940Z,9.23
2018-04-22T13:15:20.589Z,4.27
2018-04-22T13:17:49.025Z,3.60
2018-04-22T13:20:17.460Z,4.87
2018-04-22T13:22:45.893Z,3.17
2018-04-22T13:25:14.320Z,8.73
2018-04-22T13:27:42.765Z,3.27
2018-04-22T13:30:11.185Z,3.07
2018-04-22T13:32:40.425Z,4.57
2018-04-22T13:35:08.877Z,3.57
2018-04-22T13:37:38.386Z,7.97
2018-04-22T13:40:06.823Z,2.83
2018-04-22T13:42:35.537Z,4.45
2018-04-22T13:45:04.101Z,10.33
2018-04-22T13:47:32.546Z,6.97
2018-04-22T13:50:00.995Z,3.60
2018-04-22T13:52:29.689Z,3.17
2018-04-22T13:54:58.399Z,3.72
2018-04-22T13:57:27.192Z,3.73
2018-04-22T13:59:55.634Z,4.63
2018-04-22T14:02:24.090Z,6.63
2018-04-22T14:04:53.288Z,4.53
2018-04-22T14:07:21.994Z,2.65
2018-04-22T14:09:50.776Z,3.20
2018-04-22T14:12:19.225Z,3.70
2018-04-22T14:14:47.929Z,3.60
2018-04-22T14:17:16.637Z,3.70
2018-04-22T14:19:45.164Z,7.33
2018-04-22T14:22:14.393Z,10.55
2018-04-22T14:24:43.105Z,4.00
2018-04-22T14:27:11.590Z,4.17
2018-04-22T14:29:41.068Z,4.50
2018-04-22T14:32:09.766Z,5.57
2018-04-22T14:34:38.487Z,11.40
2018-04-22T14:37:07.257Z,8.27
2018-04-22T14:39:35.692Z,14.77
2018-04-22T14:42:04.322Z,3.47
2018-04-22T14:44:44.951Z,3.37
2018-04-22T14:47:13.545Z,8.53
2018-04-22T14:49:42.241Z,3.40
2018-04-22T14:52:11.717Z,8.43
2018-04-22T14:54:40.433Z,9.07
2018-04-22T14:57:08.885Z,3.97
2018-04-22T14:59:37.595Z,5.00
2018-04-22T15:02:07.196Z,16.23
2018-04-22T15:04:35.637Z,4.13
2018-04-22T15:07:04.066Z,4.53
2018-04-22T15:09:33.544Z,3.72
2018-04-22T15:12:02.254Z,3.07
2018-04-22T15:14:31.723Z,3.40
2018-04-22T15:17:01.245Z,5.23
2018-04-22T15:19:29.920Z,4.87
2018-04-22T15:21:59.313Z,5.23
2018-04-22T15:24:27.937Z,2.73
2018-04-22T15:26:56.693Z,3.40
2018-04-22T15:29:25.133Z,3.47
2018-04-22T15:31:53.844Z,2.70
2018-04-22T15:34:23.143Z,5.90
2018-04-22T15:36:51.858Z,4.13
2018-04-22T15:39:20.314Z,3.17
2018-04-22T15:41:49.507Z,6.70
2018-04-22T15:44:18.701Z,5.80
2018-04-22T15:46:47.193Z,3.07
2018-04-22T15:49:15.965Z,5.75
2018-04-22T15:51:45.539Z,5.70
2018-04-22T15:54:14.902Z,4.20
2018-04-22T15:56:43.336Z,3.80
2018-04-22T15:59:12.543Z,11.17
2018-04-22T16:01:40.985Z,4.40
2018-04-22T16:04:09.565Z,3.83
2018-04-22T16:06:38.005Z,3.60
2018-04-22T16:09:06.857Z,6.20
2018-04-22T16:11:35.284Z,4.40
2018-04-22T16:14:04.264Z,4.45
2018-04-22T16:16:32.713Z,4.40
2018-04-22T16:19:01.151Z,12.00
2018-04-22T16:21:29.607Z,7.57
2018-04-22T16:23:58.322Z,4.10
2018-04-22T16:26:27.702Z,6.27
2018-04-22T16:28:56.145Z,5.40
2018-04-22T16:31:24.873Z,5.97
2018-04-22T16:33:54.376Z,4.30
2018-04-22T16:36:22.809Z,4.83
2018-04-22T16:38:51.414Z,11.60
2018-04-22T16:41:19.949Z,11.83
2018-04-22T16:43:48.552Z,6.43
2018-04-22T16:46:16.993Z,8.40
2018-04-22T16:48:45.652Z,12.20
2018-04-22T16:51:14.096Z,15.03
2018-04-22T16:53:42.561Z,7.37
2018-04-22T16:56:11.882Z,7.70
2018-04-22T16:58:40.321Z,5.60
2018-04-22T17:01:08.765Z,5.43
2018-04-22T17:03:37.200Z,13.20
2018-04-22T17:06:06.322Z,14.07
2018-04-22T17:08:35.682Z,3.42
2018-04-22T17:11:08.983Z,5.87
2018-04-22T17:13:37.697Z,8.52
2018-04-22T17:16:06.423Z,12.18
2018-04-22T17:18:34.995Z,7.60
2018-04-22T17:21:03.451Z,9.27
2018-04-22T17:23:32.856Z,23.30
2018-04-22T17:26:01.374Z,21.53
2018-04-22T17:28:30.855Z,5.97
2018-04-22T17:30:59.058Z,15.13
2018-04-22T17:33:27.697Z,17.33
2018-04-22T17:35:56.455Z,15.57
2018-04-22T17:38:25.153Z,7.35
2018-04-22T17:40:53.865Z,9.00
2018-04-22T17:43:22.313Z,10.93
2018-04-22T17:45:52.296Z,8.80
2018-04-22T17:48:21.046Z,13.30
2018-04-22T17:50:49.704Z,7.53
2018-04-22T17:53:18.197Z,10.50
2018-04-22T17:55:47.165Z,22.23
2018-04-22T17:58:15.603Z,12.03
2018-04-22T18:00:44.289Z,13.30
2018-04-22T18:03:13.754Z,7.30
2018-04-22T18:05:42.230Z,7.60
2018-04-22T18:08:11.146Z,17.03
2018-04-22T18:10:39.580Z,7.23
2018-04-22T18:13:08.027Z,5.63
2018-04-22T18:15:37.389Z,6.97
2018-04-22T18:18:06.600Z,5.80
2018-04-22T18:20:35.313Z,8.50
2018-04-22T18:23:04.451Z,6.70
2018-04-22T18:25:33.866Z,5.67
2018-04-22T18:28:03.289Z,11.07
2018-04-22T18:30:32.044Z,14.73
2018-04-22T18:33:00.834Z,8.70
2018-04-22T18:35:30.112Z,7.90
2018-04-22T18:37:58.620Z,8.73
2018-04-22T18:40:27.839Z,6.50
2018-04-22T18:42:57.104Z,4.57
2018-04-22T18:45:26.433Z,8.33
2018-04-22T18:47:55.165Z,12.15
2018-04-22T18:50:23.612Z,11.57
2018-04-22T18:52:52.873Z,5.07
2018-04-22T18:55:21.341Z,6.93
2018-04-22T18:57:50.082Z,9.85
2018-04-22T19:00:18.540Z,9.40
2018-04-22T19:02:47.012Z,6.57
2018-04-22T19:05:15.495Z,5.90
2018-04-22T19:07:44.192Z,7.37
2018-04-22T19:10:13.015Z,6.07
2018-04-22T19:12:41.734Z,5.07
2018-04-22T19:15:10.856Z,11.67
2018-04-22T19:17:39.298Z,5.33
2018-04-22T19:20:07.760Z,10.13
2018-04-22T19:22:36.196Z,6.37
2018-04-22T19:25:04.984Z,9.25
2018-04-22T19:27:33.487Z,6.00
2018-04-22T19:30:01.700Z,9.90
2018-04-22T19:32:30.409Z,4.90
2018-04-22T19:34:59.141Z,5.57
2018-04-22T19:37:27.698Z,7.73
2018-04-22T19:39:56.196Z,7.30
2018-04-22T19:42:24.915Z,8.73
2018-04-22T19:44:53.360Z,9.37
2018-04-22T19:47:22.875Z,5.93
2018-04-22T19:49:51.788Z,5.82
2018-04-22T19:52:20.268Z,5.90
2018-04-22T19:54:48.712Z,8.77
2018-04-22T19:57:17.576Z,8.02
2018-04-22T19:59:46.968Z,7.40
2018-04-22T20:02:16.513Z,5.87
2018-04-22T20:04:45.229Z,5.93
2018-04-22T20:07:13.673Z,7.93
2018-04-22T20:09:42.386Z,16.53
2018-04-22T20:12:10.854Z,7.10
2018-04-22T20:14:39.304Z,7.00
2018-04-22T20:17:08.844Z,9.02
2018-04-22T20:19:36.749Z,8.37
2018-04-22T20:22:05.320Z,8.57
2018-04-22T20:24:35.455Z,7.50
2018-04-22T20:27:04.741Z,6.20
2018-04-22T20:29:33.475Z,9.47
2018-04-22T20:32:01.965Z,7.07
2018-04-22T20:34:30.418Z,7.20
2018-04-22T20:36:59.907Z,7.85
2018-04-22T20:39:29.215Z,7.70
2018-04-22T20:41:57.818Z,8.83
2018-04-22T20:44:26.197Z,8.70
2018-04-22T20:46:54.624Z,6.83
2018-04-22T20:49:23.848Z,7.07
2018-04-22T20:51:52.287Z,6.93
2018-04-22T20:54:20.996Z,10.35
2018-04-22T20:56:50.368Z,5.70
2018-04-22T20:59:18.804Z,8.63
2018-04-22T21:01:47.490Z,6.67
2018-04-22T21:04:16.120Z,11.90
2018-04-22T21:06:44.566Z,10.73
2018-04-22T21:09:13.008Z,9.30
2018-04-22T21:11:42.382Z,7.73
2018-04-22T21:14:10.815Z,6.97
2018-04-22T21:16:39.240Z,7.33
2018-04-22T21:19:07.690Z,9.80
2018-04-22T21:21:36.260Z,9.03
2018-04-22T21:24:04.703Z,9.03
2018-04-22T21:26:33.456Z,9.60
2018-04-22T21:29:02.169Z,9.93
2018-04-22T21:31:30.873Z,9.00
2018-04-22T21:33:59.466Z,8.63
2018-04-22T21:36:28.046Z,9.30
2018-04-22T21:38:56.489Z,7.80
2018-04-22T21:41:25.760Z,10.63
2018-04-22T21:43:54.472Z,10.10
2018-04-22T21:46:22.988Z,9.80
2018-04-22T21:48:51.470Z,11.60
2018-04-22T21:51:20.007Z,10.03
2018-04-22T21:53:50.145Z,8.87
2018-04-22T21:56:18.960Z,9.65
2018-04-22T21:58:47.277Z,9.10
2018-04-22T22:01:15.718Z,10.03
2018-04-22T22:03:44.312Z,10.40
2018-04-22T22:06:13.268Z,11.00
2018-04-22T22:08:42.747Z,12.23
2018-04-22T22:11:11.532Z,10.20
2018-04-22T22:13:40.344Z,9.10
2018-04-22T22:16:08.194Z,9.93
2018-04-22T22:18:37.407Z,7.17
2018-04-22T22:21:06.118Z,8.35
2018-04-22T22:23:34.554Z,8.60
2018-04-22T22:26:03.320Z,9.13
2018-04-22T22:28:32.050Z,6.93
2018-04-22T22:31:00.777Z,5.50
2018-04-22T22:33:29.270Z,5.80
2018-04-22T22:35:57.973Z,5.00
2018-04-22T22:38:26.677Z,5.90
2018-04-22T22:40:55.401Z,8.73
2018-04-22T22:43:23.949Z,7.87
2018-04-22T22:45:52.677Z,13.25
2018-04-22T22:48:21.333Z,7.97
2018-04-22T22:50:49.837Z,8.27
2018-04-22T22:53:18.455Z,5.27
2018-04-22T22:55:47.172Z,8.63
2018-04-22T22:58:16.656Z,6.27
2018-04-22T23:00:45.867Z,17.60
2018-04-22T23:03:14.318Z,5.33
2018-04-22T23:05:42.854Z,4.50
2018-04-22T23:08:12.321Z,4.80
2018-04-22T23:10:41.539Z,5.00
2018-04-22T23:13:10.281Z,7.30
2018-04-22T23:15:38.997Z,4.93
2018-04-22T23:18:07.720Z,4.43
2018-04-22T23:20:35.923Z,10.40
2018-04-22T23:23:04.650Z,5.47
2018-04-22T23:25:33.130Z,4.33
2018-04-22T23:28:02.422Z,4.37
2018-04-22T23:30:31.626Z,5.40
2018-04-22T23:33:00.342Z,6.78
2018-04-22T23:35:28.800Z,5.37
2018-04-22T23:37:58.096Z,4.80
2018-04-22T23:40:26.543Z,5.60
2018-04-22T23:42:55.783Z,7.73
2018-04-22T23:45:24.222Z,7.90
2018-04-22T23:47:52.939Z,6.22
2018-04-22T23:50:22.260Z,5.37
2018-04-22T23:52:50.694Z,4.60
2018-04-22T23:55:19.911Z,5.50
2018-04-22T23:57:48.713Z,5.90
